sensor_id;sensor_type;location;lat;lon;timestamp;pressure;altitude;pressure_sealevel;temperature;humidity
49393;BME280;35268;42.642;23.308;2022-11-03T00:00:28;94449.78;;;15.37;37.09
49393;BME280;35268;42.642;23.308;2022-11-03T00:02:54;94452.94;;;15.39;37.03
49393;BME280;35268;42.642;23.308;2022-11-03T00:05:19;94461.00;;;15.39;37.29
49393;BME280;35268;42.642;23.308;2022-11-03T00:08:03;94465.59;;;15.39;37.40
49393;BME280;35268;42.642;23.308;2022-11-03T00:10:29;94469.97;;;15.43;37.15
49393;BME280;35268;42.642;23.308;2022-11-03T00:12:55;94460.91;;;15.48;37.46
49393;BME280;35268;42.642;23.308;2022-11-03T00:15:20;94465.19;;;15.49;38.08
49393;BME280;35268;42.642;23.308;2022-11-03T00:17:45;94475.94;;;15.49;37.92
49393;BME280;35268;42.642;23.308;2022-11-03T00:20:11;94468.84;;;15.44;38.04
49393;BME280;35268;42.642;23.308;2022-11-03T00:22:36;94471.88;;;15.43;37.92
49393;BME280;35268;42.642;23.308;2022-11-03T00:25:02;94472.66;;;15.43;38.39
49393;BME280;35268;42.642;23.308;2022-11-03T00:27:28;94480.56;;;15.40;38.46
49393;BME280;35268;42.642;23.308;2022-11-03T00:29:54;94478.19;;;15.38;38.46
49393;BME280;35268;42.642;23.308;2022-11-03T00:32:19;94469.69;;;15.36;38.36
49393;BME280;35268;42.642;23.308;2022-11-03T00:34:44;94466.44;;;15.31;38.60
49393;BME280;35268;42.642;23.308;2022-11-03T00:37:10;94470.53;;;15.28;38.72
49393;BME280;35268;42.642;23.308;2022-11-03T00:39:35;94467.28;;;15.22;38.70
49393;BME280;35268;42.642;23.308;2022-11-03T00:42:01;94479.13;;;15.21;38.50
49393;BME280;35268;42.642;23.308;2022-11-03T00:44:26;94480.44;;;15.15;38.60
49393;BME280;35268;42.642;23.308;2022-11-03T00:46:52;94476.50;;;15.13;39.11
49393;BME280;35268;42.642;23.308;2022-11-03T00:49:17;94476.06;;;15.11;39.16
49393;BME280;35268;42.642;23.308;2022-11-03T00:51:42;94477.16;;;15.10;39.34
49393;BME280;35268;42.642;23.308;2022-11-03T00:54:08;94478.13;;;15.05;39.62
49393;BME280;35268;42.642;23.308;2022-11-03T00:56:35;94479.22;;;15.04;39.50
49393;BME280;35268;42.642;23.308;2022-11-03T00:59:03;94470.72;;;15.02;40.05
49393;BME280;35268;42.642;23.308;2022-11-03T01:01:31;94484.34;;;14.97;40.27
49393;BME280;35268;42.642;23.308;2022-11-03T01:03:57;94477.44;;;14.87;40.57
49393;BME280;35268;42.642;23.308;2022-11-03T01:06:47;94477.97;;;14.80;40.88
49393;BME280;35268;42.642;23.308;2022-11-03T01:12:12;94479.56;;;14.73;41.14
49393;BME280;35268;42.642;23.308;2022-11-03T01:17:22;94486.06;;;14.72;41.50
49393;BME280;35268;42.642;23.308;2022-11-03T01:19:48;94482.25;;;14.73;41.91
49393;BME280;35268;42.642;23.308;2022-11-03T01:22:14;94475.97;;;14.69;42.34
49393;BME280;35268;42.642;23.308;2022-11-03T01:24:41;94484.00;;;14.69;42.66
49393;BME280;35268;42.642;23.308;2022-11-03T01:27:12;94479.78;;;14.68;42.65
49393;BME280;35268;42.642;23.308;2022-11-03T01:29:38;94483.88;;;14.65;42.75
49393;BME280;35268;42.642;23.308;2022-11-03T01:32:03;94482.31;;;14.55;42.76
49393;BME280;35268;42.642;23.308;2022-11-03T01:34:29;94480.94;;;14.49;42.70
49393;BME280;35268;42.642;23.308;2022-11-03T01:36:54;94482.03;;;14.48;42.57
49393;BME280;35268;42.642;23.308;2022-11-03T01:39:20;94476.38;;;14.41;42.78
49393;BME280;35268;42.642;23.308;2022-11-03T01:41:48;94475.28;;;14.42;43.00
49393;BME280;35268;42.642;23.308;2022-11-03T01:49:24;94481.91;;;14.36;43.14
49393;BME280;35268;42.642;23.308;2022-11-03T01:54:37;94484.28;;;14.37;43.58
49393;BME280;35268;42.642;23.308;2022-11-03T01:57:06;94483.94;;;14.39;43.65
49393;BME280;35268;42.642;23.308;2022-11-03T01:59:35;94483.63;;;14.40;43.61
49393;BME280;35268;42.642;23.308;2022-11-03T02:02:01;94487.44;;;14.39;43.89
49393;BME280;35268;42.642;23.308;2022-11-03T02:04:30;94489.31;;;14.39;44.09
49393;BME280;35268;42.642;23.308;2022-11-03T02:07:07;94490.13;;;14.39;44.09
49393;BME280;35268;42.642;23.308;2022-11-03T02:09:35;94493.25;;;14.41;44.03
49393;BME280;35268;42.642;23.308;2022-11-03T02:12:01;94496.25;;;14.40;44.11
49393;BME280;35268;42.642;23.308;2022-11-03T02:14:42;94494.88;;;14.34;44.38
49393;BME280;35268;42.642;23.308;2022-11-03T02:17:10;94491.25;;;14.30;44.43
49393;BME280;35268;42.642;23.308;2022-11-03T02:24:56;94486.50;;;14.27;45.78
49393;BME280;35268;42.642;23.308;2022-11-03T02:27:24;94482.91;;;14.22;45.92
49393;BME280;35268;42.642;23.308;2022-11-03T02:29:49;94484.19;;;14.16;45.97
49393;BME280;35268;42.642;23.308;2022-11-03T02:32:21;94478.19;;;14.19;45.93
49393;BME280;35268;42.642;23.308;2022-11-03T02:37:29;94490.97;;;14.14;46.04
49393;BME280;35268;42.642;23.308;2022-11-03T02:40:09;94484.06;;;14.13;46.33
49393;BME280;35268;42.642;23.308;2022-11-03T02:42:39;94479.00;;;14.11;46.51
49393;BME280;35268;42.642;23.308;2022-11-03T02:45:09;94483.25;;;14.12;46.47
49393;BME280;35268;42.642;23.308;2022-11-03T02:47:36;94482.16;;;14.13;46.49
49393;BME280;35268;42.642;23.308;2022-11-03T02:50:05;94485.63;;;14.14;46.61
49393;BME280;35268;42.642;23.308;2022-11-03T02:52:38;94486.56;;;14.18;46.57
49393;BME280;35268;42.642;23.308;2022-11-03T02:57:51;94485.00;;;14.17;46.72
49393;BME280;35268;42.642;23.308;2022-11-03T03:00:19;94481.03;;;14.14;46.91
49393;BME280;35268;42.642;23.308;2022-11-03T03:02:57;94492.69;;;14.18;46.76
49393;BME280;35268;42.642;23.308;2022-11-03T03:05:28;94483.72;;;14.14;46.59
49393;BME280;35268;42.642;23.308;2022-11-03T03:07:58;94483.91;;;14.09;46.90
49393;BME280;35268;42.642;23.308;2022-11-03T03:10:33;94486.91;;;14.08;47.34
49393;BME280;35268;42.642;23.308;2022-11-03T03:13:02;94482.97;;;14.05;47.73
49393;BME280;35268;42.642;23.308;2022-11-03T03:15:46;94478.69;;;14.04;48.29
49393;BME280;35268;42.642;23.308;2022-11-03T03:21:21;94477.00;;;13.91;49.01
49393;BME280;35268;42.642;23.308;2022-11-03T03:23:56;94481.25;;;13.92;49.02
49393;BME280;35268;42.642;23.308;2022-11-03T03:26:27;94475.88;;;13.92;49.34
49393;BME280;35268;42.642;23.308;2022-11-03T03:29:08;94479.97;;;13.98;48.99
49393;BME280;35268;42.642;23.308;2022-11-03T03:31:37;94475.09;;;14.00;48.98
49393;BME280;35268;42.642;23.308;2022-11-03T03:34:05;94480.78;;;13.98;49.04
49393;BME280;35268;42.642;23.308;2022-11-03T03:36:32;94478.22;;;14.02;48.73
49393;BME280;35268;42.642;23.308;2022-11-03T03:39:01;94483.94;;;13.92;49.16
49393;BME280;35268;42.642;23.308;2022-11-03T03:41:29;94477.47;;;13.93;49.18
49393;BME280;35268;42.642;23.308;2022-11-03T03:43:59;94487.06;;;13.94;49.12
49393;BME280;35268;42.642;23.308;2022-11-03T03:46:30;94475.56;;;13.93;49.24
49393;BME280;35268;42.642;23.308;2022-11-03T03:48:57;94495.44;;;13.92;49.05
49393;BME280;35268;42.642;23.308;2022-11-03T03:51:24;94484.28;;;13.90;49.01
49393;BME280;35268;42.642;23.308;2022-11-03T03:53:52;94481.59;;;13.90;49.23
49393;BME280;35268;42.642;23.308;2022-11-03T03:56:22;94483.00;;;13.88;49.38
49393;BME280;35268;42.642;23.308;2022-11-03T03:58:48;94483.31;;;13.77;49.82
49393;BME280;35268;42.642;23.308;2022-11-03T04:01:13;94479.41;;;13.75;50.12
49393;BME280;35268;42.642;23.308;2022-11-03T04:03:38;94474.81;;;13.75;50.09
49393;BME280;35268;42.642;23.308;2022-11-03T04:06:04;94481.91;;;13.71;50.37
49393;BME280;35268;42.642;23.308;2022-11-03T04:08:30;94481.44;;;13.69;50.44
49393;BME280;35268;42.642;23.308;2022-11-03T04:10:55;94481.28;;;13.65;50.63
49393;BME280;35268;42.642;23.308;2022-11-03T04:13:39;94496.28;;;13.58;50.98
49393;BME280;35268;42.642;23.308;2022-11-03T04:16:23;94491.22;;;13.56;51.22
49393;BME280;35268;42.642;23.308;2022-11-03T04:19:10;94489.81;;;13.50;51.43
49393;BME280;35268;42.642;23.308;2022-11-03T04:21:54;94483.81;;;13.44;51.73
49393;BME280;35268;42.642;23.308;2022-11-03T04:24:37;94478.78;;;13.43;51.78
49393;BME280;35268;42.642;23.308;2022-11-03T04:27:29;94488.09;;;13.46;51.86
49393;BME280;35268;42.642;23.308;2022-11-03T04:30:15;94482.88;;;13.40;51.85
49393;BME280;35268;42.642;23.308;2022-11-03T04:32:42;94484.00;;;13.39;51.82
49393;BME280;35268;42.642;23.308;2022-11-03T04:35:23;94485.09;;;13.38;51.98
49393;BME280;35268;42.642;23.308;2022-11-03T04:37:57;94486.69;;;13.39;52.13
49393;BME280;35268;42.642;23.308;2022-11-03T04:40:26;94486.19;;;13.37;52.31
49393;BME280;35268;42.642;23.308;2022-11-03T04:42:51;94482.25;;;13.35;52.66
49393;BME280;35268;42.642;23.308;2022-11-03T04:45:30;94487.47;;;13.31;52.78
49393;BME280;35268;42.642;23.308;2022-11-03T04:47:57;94482.22;;;13.26;52.91
49393;BME280;35268;42.642;23.308;2022-11-03T04:50:23;94479.72;;;13.21;53.03
49393;BME280;35268;42.642;23.308;2022-11-03T04:52:57;94473.88;;;13.19;53.13
49393;BME280;35268;42.642;23.308;2022-11-03T04:55:23;94484.59;;;13.19;53.14
49393;BME280;35268;42.642;23.308;2022-11-03T04:57:53;94483.63;;;13.15;53.06
49393;BME280;35268;42.642;23.308;2022-11-03T05:00:21;94484.25;;;13.12;53.06
49393;BME280;35268;42.642;23.308;2022-11-03T05:02:48;94486.63;;;13.13;53.18
49393;BME280;35268;42.642;23.308;2022-11-03T05:05:25;94487.72;;;13.12;53.19
49393;BME280;35268;42.642;23.308;2022-11-03T05:07:55;94494.00;;;13.08;53.53
49393;BME280;35268;42.642;23.308;2022-11-03T05:10:24;94486.94;;;13.03;53.63
49393;BME280;35268;42.642;23.308;2022-11-03T05:12:50;94491.34;;;12.99;53.76
49393;BME280;35268;42.642;23.308;2022-11-03T05:15:35;94496.50;;;12.95;53.81
49393;BME280;35268;42.642;23.308;2022-11-03T05:18:14;94500.28;;;12.94;54.06
49393;BME280;35268;42.642;23.308;2022-11-03T05:20:47;94497.59;;;12.94;53.98
49393;BME280;35268;42.642;23.308;2022-11-03T05:23:13;94500.91;;;12.91;54.02
49393;BME280;35268;42.642;23.308;2022-11-03T05:25:41;94501.88;;;12.95;54.15
49393;BME280;35268;42.642;23.308;2022-11-03T05:28:19;94500.13;;;12.99;54.27
49393;BME280;35268;42.642;23.308;2022-11-03T05:30:47;94502.97;;;13.03;54.23
49393;BME280;35268;42.642;23.308;2022-11-03T05:33:27;94499.66;;;12.97;54.49
49393;BME280;35268;42.642;23.308;2022-11-03T05:35:54;94507.38;;;12.99;54.52
49393;BME280;35268;42.642;23.308;2022-11-03T05:38:21;94509.72;;;13.00;54.38
49393;BME280;35268;42.642;23.308;2022-11-03T05:40:51;94504.06;;;13.02;54.22
49393;BME280;35268;42.642;23.308;2022-11-03T05:43:18;94523.44;;;12.99;54.28
49393;BME280;35268;42.642;23.308;2022-11-03T05:45:45;94524.81;;;12.96;54.44
49393;BME280;35268;42.642;23.308;2022-11-03T05:48:25;94524.69;;;13.01;54.52
49393;BME280;35268;42.642;23.308;2022-11-03T05:50:54;94528.31;;;13.05;54.52
49393;BME280;35268;42.642;23.308;2022-11-03T05:53:29;94532.25;;;13.08;54.86
49393;BME280;35268;42.642;23.308;2022-11-03T05:55:58;94539.69;;;13.11;54.96
49393;BME280;35268;42.642;23.308;2022-11-03T05:58:30;94539.50;;;13.16;54.91
49393;BME280;35268;42.642;23.308;2022-11-03T06:00:58;94538.75;;;13.24;54.79
49393;BME280;35268;42.642;23.308;2022-11-03T06:03:27;94536.59;;;13.35;54.39
49393;BME280;35268;42.642;23.308;2022-11-03T06:05:53;94544.47;;;13.40;54.54
49393;BME280;35268;42.642;23.308;2022-11-03T06:08:23;94549.50;;;13.51;54.71
49393;BME280;35268;42.642;23.308;2022-11-03T06:10:54;94550.47;;;13.55;54.29
49393;BME280;35268;42.642;23.308;2022-11-03T06:13:29;94547.94;;;13.67;53.74
49393;BME280;35268;42.642;23.308;2022-11-03T06:15:57;94554.09;;;13.76;54.05
49393;BME280;35268;42.642;23.308;2022-11-03T06:18:30;94551.88;;;13.87;53.24
49393;BME280;35268;42.642;23.308;2022-11-03T06:21:05;94557.88;;;13.93;52.97
49393;BME280;35268;42.642;23.308;2022-11-03T06:23:32;94560.22;;;14.03;52.81
49393;BME280;35268;42.642;23.308;2022-11-03T06:26:00;94560.50;;;14.10;52.45
49393;BME280;35268;42.642;23.308;2022-11-03T06:28:39;94561.13;;;14.24;52.09
49393;BME280;35268;42.642;23.308;2022-11-03T06:31:26;94572.31;;;14.35;52.12
49393;BME280;35268;42.642;23.308;2022-11-03T06:33:52;94571.19;;;14.45;52.53
49393;BME280;35268;42.642;23.308;2022-11-03T06:36:20;94569.25;;;14.54;51.91
49393;BME280;35268;42.642;23.308;2022-11-03T06:38:50;94576.53;;;14.62;51.62
49393;BME280;35268;42.642;23.308;2022-11-03T06:41:23;94579.81;;;14.68;51.25
49393;BME280;35268;42.642;23.308;2022-11-03T06:43:49;94581.53;;;14.73;50.68
49393;BME280;35268;42.642;23.308;2022-11-03T06:46:24;94579.00;;;14.76;50.45
49393;BME280;35268;42.642;23.308;2022-11-03T06:48:57;94577.09;;;14.77;50.55
49393;BME280;35268;42.642;23.308;2022-11-03T06:51:25;94571.22;;;14.83;50.42
49393;BME280;35268;42.642;23.308;2022-11-03T06:53:53;94578.59;;;14.95;50.22
49393;BME280;35268;42.642;23.308;2022-11-03T06:56:21;94568.16;;;15.02;50.32
49393;BME280;35268;42.642;23.308;2022-11-03T06:58:49;94578.69;;;15.16;49.97
49393;BME280;35268;42.642;23.308;2022-11-03T07:01:20;94574.50;;;15.28;49.40
49393;BME280;35268;42.642;23.308;2022-11-03T07:03:45;94580.47;;;15.33;49.06
49393;BME280;35268;42.642;23.308;2022-11-03T07:08:41;94569.16;;;15.49;49.17
49393;BME280;35268;42.642;23.308;2022-11-03T07:11:27;94565.06;;;15.42;49.13
49393;BME280;35268;42.642;23.308;2022-11-03T07:14:00;94579.63;;;15.41;49.21
49393;BME280;35268;42.642;23.308;2022-11-03T07:16:31;94573.59;;;15.44;49.32
49393;BME280;35268;42.642;23.308;2022-11-03T07:19:02;94559.53;;;15.48;49.47
49393;BME280;35268;42.642;23.308;2022-11-03T07:22:02;94566.91;;;15.51;49.19
49393;BME280;35268;42.642;23.308;2022-11-03T07:27:24;94550.78;;;15.51;48.67
49393;BME280;35268;42.642;23.308;2022-11-03T07:29:56;94560.25;;;15.57;48.37
49393;BME280;35268;42.642;23.308;2022-11-03T07:32:25;94558.94;;;15.63;48.29
49393;BME280;35268;42.642;23.308;2022-11-03T07:35:01;94561.88;;;15.70;48.33
49393;BME280;35268;42.642;23.308;2022-11-03T07:37:28;94563.28;;;15.76;48.65
49393;BME280;35268;42.642;23.308;2022-11-03T07:39:54;94557.75;;;15.81;48.65
49393;BME280;35268;42.642;23.308;2022-11-03T07:42:21;94564.81;;;15.86;48.54
49393;BME280;35268;42.642;23.308;2022-11-03T07:44:47;94557.66;;;15.90;47.92
49393;BME280;35268;42.642;23.308;2022-11-03T07:47:18;94565.81;;;15.81;48.57
49393;BME280;35268;42.642;23.308;2022-11-03T07:49:44;94561.44;;;15.89;48.50
49393;BME280;35268;42.642;23.308;2022-11-03T07:52:15;94566.41;;;15.99;47.83
49393;BME280;35268;42.642;23.308;2022-11-03T07:54:44;94567.78;;;16.05;47.71
49393;BME280;35268;42.642;23.308;2022-11-03T07:57:28;94564.00;;;16.07;47.06
49393;BME280;35268;42.642;23.308;2022-11-03T08:00:04;94560.41;;;16.02;47.47
49393;BME280;35268;42.642;23.308;2022-11-03T08:02:35;94555.66;;;15.99;46.80
49393;BME280;35268;42.642;23.308;2022-11-03T08:05:02;94549.50;;;15.99;47.14
49393;BME280;35268;42.642;23.308;2022-11-03T08:07:29;94545.38;;;16.01;47.41
49393;BME280;35268;42.642;23.308;2022-11-03T08:09:55;94543.94;;;16.04;46.81
49393;BME280;35268;42.642;23.308;2022-11-03T08:12:21;94538.78;;;16.11;46.71
49393;BME280;35268;42.642;23.308;2022-11-03T08:14:47;94531.00;;;16.18;46.78
49393;BME280;35268;42.642;23.308;2022-11-03T08:17:13;94530.31;;;16.21;46.54
49393;BME280;35268;42.642;23.308;2022-11-03T08:19:39;94522.16;;;16.30;46.07
49393;BME280;35268;42.642;23.308;2022-11-03T08:22:04;94521.81;;;16.32;46.16
49393;BME280;35268;42.642;23.308;2022-11-03T08:24:30;94525.19;;;16.29;46.71
49393;BME280;35268;42.642;23.308;2022-11-03T08:26:56;94527.44;;;16.39;46.97
49393;BME280;35268;42.642;23.308;2022-11-03T08:29:21;94524.97;;;16.46;46.58
49393;BME280;35268;42.642;23.308;2022-11-03T08:31:49;94522.22;;;16.55;47.04
49393;BME280;35268;42.642;23.308;2022-11-03T08:34:14;94521.09;;;16.68;44.92
49393;BME280;35268;42.642;23.308;2022-11-03T08:36:40;94522.22;;;16.67;45.30
49393;BME280;35268;42.642;23.308;2022-11-03T08:39:05;94519.63;;;16.71;45.21
49393;BME280;35268;42.642;23.308;2022-11-03T08:41:30;94515.41;;;16.82;45.85
49393;BME280;35268;42.642;23.308;2022-11-03T08:43:56;94520.22;;;16.89;45.91
49393;BME280;35268;42.642;23.308;2022-11-03T08:46:22;94520.13;;;16.97;45.73
49393;BME280;35268;42.642;23.308;2022-11-03T08:48:47;94524.84;;;17.00;46.01
49393;BME280;35268;42.642;23.308;2022-11-03T08:51:13;94523.03;;;17.04;45.55
49393;BME280;35268;42.642;23.308;2022-11-03T08:53:39;94528.44;;;17.04;45.68
49393;BME280;35268;42.642;23.308;2022-11-03T08:56:07;94522.59;;;17.02;45.60
49393;BME280;35268;42.642;23.308;2022-11-03T08:58:32;94524.84;;;17.00;45.12
49393;BME280;35268;42.642;23.308;2022-11-03T09:00:58;94527.41;;;16.97;45.73
49393;BME280;35268;42.642;23.308;2022-11-03T09:03:23;94518.22;;;16.98;45.40
49393;BME280;35268;42.642;23.308;2022-11-03T09:05:49;94520.56;;;16.99;45.56
49393;BME280;35268;42.642;23.308;2022-11-03T09:08:14;94518.56;;;17.09;45.50
49393;BME280;35268;42.642;23.308;2022-11-03T09:10:40;94510.91;;;17.11;45.67
49393;BME280;35268;42.642;23.308;2022-11-03T09:13:05;94513.16;;;17.21;45.58
49393;BME280;35268;42.642;23.308;2022-11-03T09:15:31;94513.13;;;17.33;45.55
49393;BME280;35268;42.642;23.308;2022-11-03T09:17:56;94508.50;;;17.46;45.36
49393;BME280;35268;42.642;23.308;2022-11-03T09:20:22;94508.06;;;17.44;45.13
49393;BME280;35268;42.642;23.308;2022-11-03T09:22:47;94503.06;;;17.58;45.10
49393;BME280;35268;42.642;23.308;2022-11-03T09:25:12;94494.88;;;17.67;44.20
49393;BME280;35268;42.642;23.308;2022-11-03T09:27:38;94501.25;;;17.75;44.53
49393;BME280;35268;42.642;23.308;2022-11-03T09:30:04;94494.81;;;17.79;44.65
49393;BME280;35268;42.642;23.308;2022-11-03T09:32:29;94493.03;;;17.83;44.42
49393;BME280;35268;42.642;23.308;2022-11-03T09:34:55;94489.41;;;17.92;43.88
49393;BME280;35268;42.642;23.308;2022-11-03T09:37:21;94487.03;;;17.90;43.49
49393;BME280;35268;42.642;23.308;2022-11-03T09:39:47;94480.16;;;17.93;43.54
49393;BME280;35268;42.642;23.308;2022-11-03T09:42:14;94474.69;;;17.89;43.90
49393;BME280;35268;42.642;23.308;2022-11-03T09:44:41;94467.94;;;17.95;44.00
49393;BME280;35268;42.642;23.308;2022-11-03T09:47:10;94472.72;;;18.02;43.65
49393;BME280;35268;42.642;23.308;2022-11-03T09:49:40;94466.28;;;18.07;43.59
49393;BME280;35268;42.642;23.308;2022-11-03T09:52:05;94461.00;;;18.10;43.22
49393;BME280;35268;42.642;23.308;2022-11-03T09:54:31;94460.81;;;18.19;43.42
49393;BME280;35268;42.642;23.308;2022-11-03T09:57:05;94453.44;;;18.32;42.99
49393;BME280;35268;42.642;23.308;2022-11-03T09:59:35;94460.75;;;18.47;43.24
49393;BME280;35268;42.642;23.308;2022-11-03T10:02:01;94459.63;;;18.64;42.94
49393;BME280;35268;42.642;23.308;2022-11-03T10:04:27;94454.91;;;18.77;41.72
49393;BME280;35268;42.642;23.308;2022-11-03T10:06:57;94449.00;;;18.71;41.46
49393;BME280;35268;42.642;23.308;2022-11-03T10:09:23;94446.56;;;18.82;41.85
49393;BME280;35268;42.642;23.308;2022-11-03T10:11:51;94444.91;;;18.93;41.55
49393;BME280;35268;42.642;23.308;2022-11-03T10:14:18;94439.66;;;19.00;41.05
49393;BME280;35268;42.642;23.308;2022-11-03T10:16:51;94435.78;;;19.17;41.31
49393;BME280;35268;42.642;23.308;2022-11-03T10:19:17;94431.81;;;19.31;40.69
49393;BME280;35268;42.642;23.308;2022-11-03T10:21:42;94429.75;;;19.43;40.58
49393;BME280;35268;42.642;23.308;2022-11-03T10:24:11;94428.47;;;19.57;39.30
49393;BME280;35268;42.642;23.308;2022-11-03T10:26:48;94414.38;;;19.67;39.39
49393;BME280;35268;42.642;23.308;2022-11-03T10:29:21;94418.03;;;19.75;38.29
49393;BME280;35268;42.642;23.308;2022-11-03T10:31:49;94408.72;;;19.72;38.78
49393;BME280;35268;42.642;23.308;2022-11-03T10:34:35;94410.34;;;19.77;39.77
49393;BME280;35268;42.642;23.308;2022-11-03T10:37:25;94409.63;;;19.80;37.97
49393;BME280;35268;42.642;23.308;2022-11-03T10:39:55;94397.69;;;19.81;38.22
49393;BME280;35268;42.642;23.308;2022-11-03T10:42:27;94397.78;;;19.88;37.29
49393;BME280;35268;42.642;23.308;2022-11-03T10:47:41;94384.34;;;19.92;36.07
49393;BME280;35268;42.642;23.308;2022-11-03T10:52:43;94382.66;;;19.83;33.66
49393;BME280;35268;42.642;23.308;2022-11-03T10:55:09;94373.69;;;19.79;33.33
49393;BME280;35268;42.642;23.308;2022-11-03T10:57:35;94363.94;;;19.75;32.49
49393;BME280;35268;42.642;23.308;2022-11-03T11:00:02;94365.09;;;19.74;33.58
49393;BME280;35268;42.642;23.308;2022-11-03T11:02:30;94358.19;;;19.76;34.14
49393;BME280;35268;42.642;23.308;2022-11-03T11:05:12;94360.59;;;19.81;33.72
49393;BME280;35268;42.642;23.308;2022-11-03T11:07:39;94348.66;;;19.82;32.32
49393;BME280;35268;42.642;23.308;2022-11-03T11:10:28;94352.59;;;19.89;33.43
49393;BME280;35268;42.642;23.308;2022-11-03T11:13:24;94344.59;;;19.96;35.66
49393;BME280;35268;42.642;23.308;2022-11-03T11:15:58;94341.97;;;19.99;35.01
49393;BME280;35268;42.642;23.308;2022-11-03T11:20:56;94344.66;;;20.22;34.54
49393;BME280;35268;42.642;23.308;2022-11-03T11:28:41;94329.97;;;20.73;34.05
49393;BME280;35268;42.642;23.308;2022-11-03T11:31:30;94325.91;;;20.87;32.93
49393;BME280;35268;42.642;23.308;2022-11-03T11:36:44;94324.72;;;20.88;31.85
49393;BME280;35268;42.642;23.308;2022-11-03T11:42:04;94313.72;;;20.73;31.67
49393;BME280;35268;42.642;23.308;2022-11-03T11:44:53;94312.16;;;20.72;31.91
49393;BME280;35268;42.642;23.308;2022-11-03T12:01:03;94286.09;;;20.91;30.84
49393;BME280;35268;42.642;23.308;2022-11-03T12:05:56;94291.09;;;20.92;30.46
49393;BME280;35268;42.642;23.308;2022-11-03T12:08:27;94283.03;;;20.96;29.70
49393;BME280;35268;42.642;23.308;2022-11-03T12:10:55;94278.84;;;21.02;30.06
49393;BME280;35268;42.642;23.308;2022-11-03T12:16:03;94263.56;;;21.17;29.99
49393;BME280;35268;42.642;23.308;2022-11-03T12:18:36;94268.63;;;21.22;30.03
49393;BME280;35268;42.642;23.308;2022-11-03T12:21:04;94274.53;;;21.31;30.20
49393;BME280;35268;42.642;23.308;2022-11-03T12:23:40;94266.47;;;21.38;30.16
49393;BME280;35268;42.642;23.308;2022-11-03T12:28:39;94269.19;;;21.38;29.59
49393;BME280;35268;42.642;23.308;2022-11-03T12:31:05;94259.59;;;21.44;29.74
49393;BME280;35268;42.642;23.308;2022-11-03T12:33:30;94262.38;;;21.52;29.19
49393;BME280;35268;42.642;23.308;2022-11-03T12:35:56;94258.19;;;21.58;29.37
49393;BME280;35268;42.642;23.308;2022-11-03T12:38:22;94252.84;;;21.69;28.72
49393;BME280;35268;42.642;23.308;2022-11-03T12:40:48;94256.41;;;21.76;29.05
49393;BME280;35268;42.642;23.308;2022-11-03T12:43:14;94245.22;;;21.85;28.36
49393;BME280;35268;42.642;23.308;2022-11-03T12:45:40;94256.84;;;21.86;28.69
49393;BME280;35268;42.642;23.308;2022-11-03T12:48:06;94250.69;;;21.89;28.50
49393;BME280;35268;42.642;23.308;2022-11-03T12:50:33;94247.97;;;21.89;28.49
49393;BME280;35268;42.642;23.308;2022-11-03T12:52:58;94234.44;;;21.92;28.45
49393;BME280;35268;42.642;23.308;2022-11-03T12:55:24;94240.69;;;22.00;29.45
49393;BME280;35268;42.642;23.308;2022-11-03T12:57:49;94235.06;;;22.23;30.08
49393;BME280;35268;42.642;23.308;2022-11-03T13:00:15;94236.38;;;22.47;29.17
49393;BME280;35268;42.642;23.308;2022-11-03T13:02:41;94224.81;;;22.64;28.39
49393;BME280;35268;42.642;23.308;2022-11-03T13:05:07;94232.63;;;22.77;27.87
49393;BME280;35268;42.642;23.308;2022-11-03T13:07:33;94231.09;;;22.76;27.73
49393;BME280;35268;42.642;23.308;2022-11-03T13:09:58;94226.81;;;22.75;27.97
49393;BME280;35268;42.642;23.308;2022-11-03T13:12:24;94226.78;;;22.68;27.72
49393;BME280;35268;42.642;23.308;2022-11-03T13:15:00;94230.25;;;22.64;28.02
49393;BME280;35268;42.642;23.308;2022-11-03T13:17:26;94226.03;;;22.74;27.84
49393;BME280;35268;42.642;23.308;2022-11-03T13:19:54;94222.53;;;22.70;27.57
49393;BME280;35268;42.642;23.308;2022-11-03T13:22:22;94215.50;;;22.62;27.60
49393;BME280;35268;42.642;23.308;2022-11-03T13:24:47;94223.22;;;22.56;27.77
49393;BME280;35268;42.642;23.308;2022-11-03T13:27:13;94217.81;;;22.60;28.22
49393;BME280;35268;42.642;23.308;2022-11-03T13:29:38;94213.56;;;22.62;28.89
49393;BME280;35268;42.642;23.308;2022-11-03T13:32:04;94212.75;;;22.58;29.13
49393;BME280;35268;42.642;23.308;2022-11-03T13:34:30;94213.16;;;22.53;28.80
49393;BME280;35268;42.642;23.308;2022-11-03T13:36:55;94218.56;;;22.57;29.20
49393;BME280;35268;42.642;23.308;2022-11-03T13:39:21;94211.63;;;22.59;29.64
49393;BME280;35268;42.642;23.308;2022-11-03T13:41:47;94205.78;;;22.57;29.48
49393;BME280;35268;42.642;23.308;2022-11-03T13:44:12;94209.31;;;22.61;29.95
49393;BME280;35268;42.642;23.308;2022-11-03T13:46:38;94208.13;;;22.62;29.55
49393;BME280;35268;42.642;23.308;2022-11-03T13:49:04;94203.88;;;22.65;29.60
49393;BME280;35268;42.642;23.308;2022-11-03T13:51:29;94210.06;;;22.62;29.39
49393;BME280;35268;42.642;23.308;2022-11-03T13:53:55;94210.03;;;22.58;29.67
49393;BME280;35268;42.642;23.308;2022-11-03T13:56:21;94207.31;;;22.51;30.48
49393;BME280;35268;42.642;23.308;2022-11-03T13:58:46;94209.22;;;22.43;30.25
49393;BME280;35268;42.642;23.308;2022-11-03T14:01:13;94205.28;;;22.34;30.41
49393;BME280;35268;42.642;23.308;2022-11-03T14:03:38;94206.78;;;22.28;30.40
49393;BME280;35268;42.642;23.308;2022-11-03T14:06:04;94209.00;;;22.18;30.93
49393;BME280;35268;42.642;23.308;2022-11-03T14:08:30;94215.19;;;22.12;30.74
49393;BME280;35268;42.642;23.308;2022-11-03T14:10:55;94218.25;;;22.03;31.11
49393;BME280;35268;42.642;23.308;2022-11-03T14:13:21;94216.56;;;21.88;31.25